Accueil
METAR-TAF:

METAR-TAF

Aéroports :

Bornemouth, Angleterre

Aéroport de Bournemouth

latitude: 50-47N, longitude: 001-50W, altitude: 11 m

Observation

Le bulletin a été fait il y a 33 minutes, à 09:50 UTC
Vent 10 kt de est
Température 4°C
Humidité 70%
Pression 1023 hPa
Visibilité 10 km ou plus
Quelques nuages à une hauteur de 2400 ft

METAR: EGHH 220950Z 08010KT 9999 FEW024 04/M01 Q1023

Heure: 10:23 (10:23 UTC)

Prévision

Le bulletin a été fait il y a 2 heures et 18 minutes, à 08:05 UTC
Prévision valable du 22 à 09 UTC au 22 à 18 UTC
Vent 5 kt de est/nord-est
Visibilité: 9000 m
Nuages épars à une hauteur de 4000 ft
Evoluant progressivement
du 22 à 09 UTC au 22 à 11 UTC
Visibilité 10 km ou plus

TAF: EGHH 220805Z 2209/2218 06005KT 9000 SCT040 BECMG 2209/2211 9999

Observations et prévisions météorologiques de plus de 4000 aéroports (messages METAR et TAF).

Les stations disponibles sont représentées par des disques jaunes et rouges sur la carte.

Passer la souris dessus pour voir le nom de la station.

Cliquer dessus pour voir les observations et prévisions météorologiques.

Pour changer de carte: cliquez sur les boutons verts avec une croix noire pour zoomer, sur le bouton vert avec un tiret pour effectuer un zoom arrière, ou sur les flèches vertes pour les cartes adjacentes.


METAR-TAF: